Time;durP1;ratioP1;P1;durP2;ratioP2;P2;SDS_P1;SDS_P2;PMS_P1;PMS_P2;Temp;Humidity;BMP_temperature;BMP_pressure;BME280_temperature;BME280_humidity;BME280_pressure;Samples;Min_cycle;Max_cycle;Signal;HPM_P1;HPM_P2
2022/02/05 00:03:02;;;;;;;;;;;;;;;-4.47;74.11;99300.66;1626385;88;20150;-71
2022/02/05 00:05:39;;;;;;;;;;;;;;;-4.48;73.92;99301.18;1625427;88;20210;-70
2022/02/05 00:19:43;;;;;;;;;;;;;;;-4.39;74.12;99303.04;1626106;86;20191;-71
2022/02/05 00:42:59;;;;;;;;;;;;;;;-4.27;73.98;99270.42;1652386;87;20126;-71
2022/02/05 00:45:28;;;;;;;;;;;;;;;-4.28;73.96;99267.97;1652443;87;20183;-71
2022/02/05 00:47:55;;;;;;;;;;;;;;;-4.31;73.99;99266.55;1652427;87;21178;-71
2022/02/05 00:50:26;;;;;;;;;;;;;;;-4.32;74.19;99264.91;1652537;87;20182;-71
2022/02/05 00:53:09;;;;;;;;;;;;;;;-4.29;74.50;99266.33;1652173;87;20135;-71
2022/02/05 00:55:34;;;;;;;;;;;;;;;-4.29;74.60;99253.75;1651528;86;20236;-71
2022/02/05 00:58:02;;;;;;;;;;;;;;;-4.28;74.50;99262.08;1652020;87;20341;-71
2022/02/05 01:00:26;;;;;;;;;;;;;;;-4.31;74.56;99262.53;1652323;87;21152;-71
2022/02/05 01:02:53;;;;;;;;;;;;;;;-4.33;74.48;99258.73;1652246;87;20137;-74
2022/02/05 01:05:20;;;;;;;;;;;;;;;-4.35;74.72;99258.15;1652436;87;20516;-71
2022/02/05 01:07:46;;;;;;;;;;;;;;;-4.38;74.89;99253.77;1652264;87;20138;-71
2022/02/05 01:10:13;;;;;;;;;;;;;;;-4.39;75.18;99253.46;1631977;87;20653;-71
2022/02/05 01:12:43;;;;;;;;;;;;;;;-4.41;75.30;99261.73;1652428;87;21828;-71
2022/02/05 01:15:08;;;;;;;;;;;;;;;-4.45;75.53;99255.19;1651939;86;20133;-71
2022/02/05 01:17:44;;;;;;;;;;;;;;;-4.48;75.64;99255.63;1652397;87;20472;-71
2022/02/05 01:22:53;;;;;;;;;;;;;;;-4.47;75.72;99255.11;1652329;87;20139;-71
2022/02/05 01:25:24;;;;;;;;;;;;;;;-4.48;75.82;99256.16;1630321;87;22712;-71
2022/02/05 01:27:53;;;;;;;;;;;;;;;-4.51;75.70;99253.92;1631175;87;20110;-71
2022/02/05 01:30:27;;;;;;;;;;;;;;;-4.54;75.83;99251.70;1630812;86;20515;-71
2022/02/05 01:35:26;;;;;;;;;;;;;;;-4.54;76.04;99253.03;1606971;86;20472;-70
2022/02/05 01:51:38;;;;;;;;;;;;;;;-4.45;76.20;99251.16;1606897;86;21244;-71
2022/02/05 01:54:12;;;;;;;;;;;;;;;-4.47;76.29;99247.07;1659595;86;20482;-73
2022/02/05 01:56:33;;;;;;;;;;;;;;;-4.49;76.39;99246.48;1659541;86;20181;-71
2022/02/05 01:59:13;;;;;;;;;;;;;;;-4.49;76.62;99243.80;1660774;86;20228;-71
2022/02/05 02:09:55;;;;;;;;;;;;;;;-4.53;77.15;99247.97;1625717;88;20161;-72
2022/02/05 02:12:16;;;;;;;;;;;;;;;-4.56;77.40;99241.20;1628694;88;20182;-72
2022/02/05 02:20:17;;;;;;;;;;;;;;;-4.48;77.72;99248.94;1631861;88;20193;-74
2022/02/05 02:22:35;;;;;;;;;;;;;;;-4.44;77.81;99241.27;1627805;88;20179;-75
2022/02/05 02:30:11;;;;;;;;;;;;;;;-4.43;78.54;99235.68;1632106;88;21805;-73
2022/02/05 02:32:36;;;;;;;;;;;;;;;-4.42;78.87;99233.81;1644326;86;20150;-73
2022/02/05 02:35:09;;;;;;;;;;;;;;;-4.43;79.47;99220.12;1616528;87;20159;-73
2022/02/05 02:37:45;;;;;;;;;;;;;;;-4.44;79.81;99221.17;1625695;87;20214;-73
2022/02/05 02:40:20;;;;;;;;;;;;;;;-4.43;79.87;99222.80;1612484;88;20175;-72
2022/02/05 02:42:40;;;;;;;;;;;;;;;-4.43;80.01;99222.80;1624353;87;21198;-73
2022/02/05 02:45:03;;;;;;;;;;;;;;;-4.40;80.41;99221.02;1625815;87;20147;-73
2022/02/05 02:47:30;;;;;;;;;;;;;;;-4.41;80.68;99216.17;1626041;88;20122;-74
2022/02/05 02:50:11;;;;;;;;;;;;;;;-4.42;80.80;99217.22;1626294;88;20178;-73
2022/02/05 02:58:04;;;;;;;;;;;;;;;-4.42;81.84;99210.52;1625941;88;20170;-73
2022/02/05 03:00:27;;;;;;;;;;;;;;;-4.41;81.96;99208.14;1626019;87;20186;-71
2022/02/05 03:02:54;;;;;;;;;;;;;;;-4.38;82.23;99203.66;1626044;87;20472;-70
2022/02/05 03:05:21;;;;;;;;;;;;;;;-4.36;82.79;99190.04;1613852;88;20179;-70
2022/02/05 03:07:48;;;;;;;;;;;;;;;-4.35;82.70;99194.35;1626085;88;21100;-71
2022/02/05 03:10:14;;;;;;;;;;;;;;;-4.33;82.88;99190.92;1626109;88;20182;-71
2022/02/05 03:12:42;;;;;;;;;;;;;;;-4.28;83.06;99193.73;1613782;88;20191;-70
2022/02/05 03:15:12;;;;;;;;;;;;;;;-4.24;82.98;99190.89;1626467;88;20168;-70
2022/02/05 03:17:38;;;;;;;;;;;;;;;-4.22;82.92;99187.47;1626203;87;20208;-70
2022/02/05 03:20:06;;;;;;;;;;;;;;;-4.18;82.94;99190.51;1613721;88;21129;-70
2022/02/05 03:22:33;;;;;;;;;;;;;;;-4.14;82.97;99191.69;1626273;88;20147;-70
2022/02/05 03:25:00;;;;;;;;;;;;;;;-4.08;82.80;99188.09;1626445;87;20154;-71
2022/02/05 03:27:27;;;;;;;;;;;;;;;-4.07;82.68;99191.88;1626334;88;20178;-71
2022/02/05 03:29:53;;;;;;;;;;;;;;;-4.07;82.61;99183.84;1626230;88;20191;-72
2022/02/05 03:32:21;;;;;;;;;;;;;;;-4.08;82.61;99182.73;1626735;86;21142;-70
2022/02/05 03:34:49;;;;;;;;;;;;;;;-4.08;82.80;99176.02;1644693;86;20133;-71
2022/02/05 03:37:17;;;;;;;;;;;;;;;-4.06;82.82;99185.47;1653843;86;20159;-71
2022/02/05 03:39:44;;;;;;;;;;;;;;;-4.06;82.90;99174.75;1653935;86;20129;-71
2022/02/05 03:42:10;;;;;;;;;;;;;;;-4.06;82.99;99172.07;1630065;86;20209;-71
2022/02/05 03:44:38;;;;;;;;;;;;;;;-4.05;82.99;99167.00;1663454;86;20095;-70
2022/02/05 03:47:04;;;;;;;;;;;;;;;-4.04;83.07;99165.10;1644195;86;20144;-71
2022/02/05 03:49:30;;;;;;;;;;;;;;;-4.01;83.24;99169.48;1663497;86;20163;-72
2022/02/05 03:51:57;;;;;;;;;;;;;;;-4.00;83.27;99157.71;1663400;86;20199;-73
2022/02/05 03:54:28;;;;;;;;;;;;;;;-4.00;83.30;99168.44;1663369;86;20179;-74
2022/02/05 03:56:54;;;;;;;;;;;;;;;-3.98;83.40;99166.86;1653588;86;21196;-74
2022/02/05 03:59:20;;;;;;;;;;;;;;;-3.95;83.41;99161.56;1663371;86;20295;-73
2022/02/05 04:01:46;;;;;;;;;;;;;;;-3.95;83.46;99164.25;1632654;86;20151;-73
2022/02/05 04:04:12;;;;;;;;;;;;;;;-3.96;83.45;99160.75;1663337;86;20160;-72
2022/02/05 04:06:38;;;;;;;;;;;;;;;-3.94;83.46;99168.03;1663510;86;20175;-73
2022/02/05 04:09:15;;;;;;;;;;;;;;;-3.92;83.50;99170.48;1663289;86;22002;-73
2022/02/05 04:11:57;;;;;;;;;;;;;;;-3.92;83.61;99163.26;1652716;86;20134;-71
2022/02/05 04:16:51;;;;;;;;;;;;;;;-3.89;83.66;99164.66;1663435;86;20143;-79
2022/02/05 04:19:17;;;;;;;;;;;;;;;-3.88;83.71;99159.07;1644354;86;20144;-72
2022/02/05 04:21:45;;;;;;;;;;;;;;;-3.87;83.79;99161.23;1663233;86;21151;-72
2022/02/05 04:24:11;;;;;;;;;;;;;;;-3.87;83.75;99159.36;1632685;86;20202;-72
2022/02/05 04:26:38;;;;;;;;;;;;;;;-3.85;83.82;99160.47;1663544;86;20092;-73
2022/02/05 04:29:08;;;;;;;;;;;;;;;-3.82;83.99;99164.03;1654026;86;20146;-72
2022/02/05 04:31:35;;;;;;;;;;;;;;;-3.77;83.93;99164.16;1664250;85;20341;-72
2022/02/05 04:34:02;;;;;;;;;;;;;;;-3.71;83.78;99164.57;1648178;85;21207;-73
2022/02/05 04:36:29;;;;;;;;;;;;;;;-3.68;83.66;99166.27;1685213;85;20163;-73
2022/02/05 04:38:59;;;;;;;;;;;;;;;-3.67;83.58;99159.03;1685096;85;20172;-73
2022/02/05 04:41:36;;;;;;;;;;;;;;;-3.71;83.53;99156.00;1685326;84;20215;-73
2022/02/05 04:44:09;;;;;;;;;;;;;;;-3.71;83.72;99153.84;1683470;85;20286;-73
2022/02/05 04:56:42;;;;;;;;;;;;;;;-3.69;84.36;99131.63;1685334;84;20228;-72
2022/02/05 05:02:11;;;;;;;;;;;;;;;-3.69;84.71;99128.94;1685251;85;20155;-72
2022/02/05 05:09:54;;;;;;;;;;;;;;;-3.69;85.41;99139.14;1685613;85;20494;-74
2022/02/05 05:20:15;;;;;;;;;;;;;;;-3.63;86.06;99148.66;1685354;85;20179;-73
2022/02/05 05:22:42;;;;;;;;;;;;;;;-3.60;86.36;99153.55;1653312;85;20218;-71
2022/02/05 05:25:10;;;;;;;;;;;;;;;-3.59;86.41;99153.32;1685088;85;21168;-73
2022/02/05 05:27:38;;;;;;;;;;;;;;;-3.58;86.56;99142.88;1685108;85;20108;-71
2022/02/05 05:30:06;;;;;;;;;;;;;;;-3.57;86.75;99139.15;1685537;85;20123;-71
2022/02/05 05:32:34;;;;;;;;;;;;;;;-3.57;86.97;99141.02;1663076;84;20451;-70
2022/02/05 05:35:03;;;;;;;;;;;;;;;-3.57;87.13;99148.53;1661218;86;20420;-71
2022/02/05 05:37:29;;;;;;;;;;;;;;;-3.56;87.41;99142.13;1661679;86;21738;-71
2022/02/05 05:39:55;;;;;;;;;;;;;;;-3.54;87.59;99145.91;1656083;86;21648;-73
2022/02/05 05:42:25;;;;;;;;;;;;;;;-3.54;87.75;99129.81;1656034;86;20185;-73
2022/02/05 05:50:33;;;;;;;;;;;;;;;-3.50;88.33;99140.37;1644143;87;21166;-73
2022/02/05 05:52:38;;;;;;;;;;;;;;;-3.49;88.36;99140.13;1652858;86;20106;-73
2022/02/05 05:55:06;;;;;;;;;;;;;;;-3.45;88.48;99140.45;1658648;86;20165;-73
2022/02/05 05:57:32;;;;;;;;;;;;;;;-3.45;88.67;99137.24;1660090;86;20165;-73
2022/02/05 05:59:59;;;;;;;;;;;;;;;-3.45;88.80;99134.56;1660058;86;20190;-73
2022/02/05 06:02:26;;;;;;;;;;;;;;;-3.44;88.88;99138.06;1659552;86;21150;-73
2022/02/05 06:04:52;;;;;;;;;;;;;;;-3.41;88.92;99141.62;1659622;86;20113;-74
2022/02/05 06:07:20;;;;;;;;;;;;;;;-3.39;89.13;99141.67;1659106;86;20432;-73
2022/02/05 06:09:46;;;;;;;;;;;;;;;-3.36;89.11;99147.91;1659317;86;20173;-74
2022/02/05 06:12:14;;;;;;;;;;;;;;;-3.33;89.25;99145.28;1657518;86;20999;-73
2022/02/05 06:14:41;;;;;;;;;;;;;;;-3.30;89.35;99134.60;1650801;86;21246;-73
2022/02/05 06:17:09;;;;;;;;;;;;;;;-3.32;89.45;99138.34;1636872;86;20105;-72
2022/02/05 06:19:37;;;;;;;;;;;;;;;-3.30;89.46;99137.29;1613577;87;20227;-72
2022/02/05 06:22:05;;;;;;;;;;;;;;;-3.30;89.55;99125.21;1631810;87;20134;-73
2022/02/05 06:24:31;;;;;;;;;;;;;;;-3.24;89.83;99128.30;1629418;88;20190;-72
2022/02/05 06:26:57;;;;;;;;;;;;;;;-3.20;89.74;99137.51;1629307;88;21141;-73
2022/02/05 06:29:24;;;;;;;;;;;;;;;-3.18;89.71;99131.38;1629373;88;20094;-75
2022/02/05 06:31:50;;;;;;;;;;;;;;;-3.19;89.71;99125.72;1637036;85;20170;-73
2022/02/05 06:34:16;;;;;;;;;;;;;;;-3.17;89.82;99124.95;1670741;85;20173;-75
2022/02/05 06:36:42;;;;;;;;;;;;;;;-3.17;90.17;99112.34;1651239;86;20179;-75
2022/02/05 06:39:09;;;;;;;;;;;;;;;-3.13;90.18;99113.50;1642033;87;22246;-75
2022/02/05 06:41:37;;;;;;;;;;;;;;;-3.12;90.07;99113.80;1640232;86;20503;-74
2022/02/05 06:44:03;;;;;;;;;;;;;;;-3.07;90.29;99119.80;1625610;86;20201;-73
2022/02/05 06:46:30;;;;;;;;;;;;;;;-3.05;90.22;99115.82;1652196;87;20198;-70
2022/02/05 06:48:56;;;;;;;;;;;;;;;-3.06;90.25;99112.84;1652134;87;20248;-83
2022/02/05 06:51:23;;;;;;;;;;;;;;;-3.05;90.41;99115.82;1652180;87;21156;-72
2022/02/05 06:53:51;;;;;;;;;;;;;;;-3.01;91.03;99116.16;1651873;87;20173;-72
2022/02/05 06:56:17;;;;;;;;;;;;;;;-2.98;90.84;99116.21;1652225;87;20181;-71
2022/02/05 06:58:44;;;;;;;;;;;;;;;-2.98;90.69;99114.34;1652145;87;20166;-70
2022/02/05 07:01:10;;;;;;;;;;;;;;;-2.98;90.86;99114.87;1652281;87;20170;-71
2022/02/05 07:03:36;;;;;;;;;;;;;;;-3.00;90.95;99111.08;1652252;87;21188;-70
2022/02/05 07:06:03;;;;;;;;;;;;;;;-3.02;91.26;99119.38;1652069;86;20160;-73
2022/02/05 07:08:29;;;;;;;;;;;;;;;-3.03;91.52;99115.58;1652334;87;20229;-77
2022/02/05 07:10:55;;;;;;;;;;;;;;;-3.02;91.67;99119.38;1652223;87;20198;-75
2022/02/05 07:13:22;;;;;;;;;;;;;;;-2.99;91.89;99118.08;1652145;87;20505;-76
2022/02/05 07:16:10;;;;;;;;;;;;;;;-2.97;91.81;99109.27;1644633;85;21550;-74
2022/02/05 07:18:53;;;;;;;;;;;;;;;-2.95;92.01;99105.81;1651417;86;20221;-78
2022/02/05 07:21:17;;;;;;;;;;;;;;;-2.92;92.15;99095.12;1650516;87;20209;-77
2022/02/05 07:29:13;;;;;;;;;;;;;;;-2.85;92.66;99083.67;1636174;86;20149;-72
2022/02/05 07:31:42;;;;;;;;;;;;;;;-2.83;92.81;99074.32;1652331;87;20173;-69
2022/02/05 07:34:10;;;;;;;;;;;;;;;-2.79;92.70;99070.09;1651795;85;33265;-70
2022/02/05 07:36:38;;;;;;;;;;;;;;;-2.72;92.77;99070.77;1652212;86;20137;-69
2022/02/05 07:39:08;;;;;;;;;;;;;;;-2.67;92.56;99062.80;1652296;85;20237;-71
2022/02/05 07:41:36;;;;;;;;;;;;;;;-2.60;93.79;99063.99;1627180;88;21156;-70
2022/02/05 07:44:03;;;;;;;;;;;;;;;-2.56;92.94;99054.92;1627011;88;21622;-69
2022/02/05 07:46:30;;;;;;;;;;;;;;;-2.51;92.63;99050.98;1627123;88;20140;-69
2022/02/05 07:48:56;;;;;;;;;;;;;;;-2.48;92.34;99049.97;1631799;85;22236;-68
2022/02/05 07:51:22;;;;;;;;;;;;;;;-2.45;92.28;99055.38;1650023;85;20240;-75
2022/02/05 07:53:48;;;;;;;;;;;;;;;-2.39;92.37;99050.38;1648657;85;21111;-71
2022/02/05 07:56:16;;;;;;;;;;;;;;;-2.36;92.21;99045.33;1649412;86;20245;-76
2022/02/05 07:58:42;;;;;;;;;;;;;;;-2.33;91.95;99044.03;1623676;87;20146;-71
2022/02/05 08:01:08;;;;;;;;;;;;;;;-2.32;91.75;99046.19;1644390;86;20204;-72
2022/02/05 08:03:35;;;;;;;;;;;;;;;-2.32;91.68;99036.78;1646907;85;20511;-75
2022/02/05 08:06:01;;;;;;;;;;;;;;;-2.34;91.79;99037.02;1645023;86;21144;-72
2022/02/05 08:08:31;;;;;;;;;;;;;;;-2.32;91.92;99038.94;1645762;86;20106;-69
2022/02/05 08:11:02;;;;;;;;;;;;;;;-2.29;92.14;99031.70;1643433;85;20511;-73
2022/02/05 08:13:28;;;;;;;;;;;;;;;-2.27;92.03;99022.86;1645960;87;20488;-76
2022/02/05 08:15:59;;;;;;;;;;;;;;;-2.25;92.04;99020.73;1644124;86;20165;-79
2022/02/05 08:18:23;;;;;;;;;;;;;;;-2.26;92.05;99016.95;1647851;86;21254;-72
2022/02/05 08:20:50;;;;;;;;;;;;;;;-2.29;92.25;99014.22;1644095;85;20441;-72
2022/02/05 08:23:16;;;;;;;;;;;;;;;-2.28;92.40;99020.41;1646516;86;20515;-70
2022/02/05 08:25:43;;;;;;;;;;;;;;;-2.28;92.49;99013.16;1644496;86;20186;-70
2022/02/05 08:28:09;;;;;;;;;;;;;;;-2.28;92.66;99014.50;1643483;86;20513;-70
2022/02/05 08:30:35;;;;;;;;;;;;;;;-2.27;92.83;99018.01;1637819;87;21158;-74
2022/02/05 08:33:03;;;;;;;;;;;;;;;-2.26;93.07;99021.80;1633518;86;20182;-72
2022/02/05 08:35:30;;;;;;;;;;;;;;;-2.24;93.16;99021.55;1625935;86;20229;-74
2022/02/05 08:37:58;;;;;;;;;;;;;;;-2.22;93.21;99028.31;1607978;88;20232;-72
2022/02/05 08:40:24;;;;;;;;;;;;;;;-2.19;93.14;99022.45;1604073;88;20244;-76
2022/02/05 08:42:51;;;;;;;;;;;;;;;-2.17;93.26;99024.36;1597707;88;21486;-89
2022/02/05 08:45:17;;;;;;;;;;;;;;;-2.14;93.09;99025.74;1614940;88;20186;-75
2022/02/05 08:47:44;;;;;;;;;;;;;;;-2.12;93.05;99027.13;1613456;88;20592;-75
2022/02/05 08:50:10;;;;;;;;;;;;;;;-2.12;92.95;99024.44;1605633;88;20642;-76
2022/02/05 08:52:39;;;;;;;;;;;;;;;-2.11;92.87;99026.07;1612616;88;20831;-73
2022/02/05 08:55:06;;;;;;;;;;;;;;;-2.08;93.07;99028.80;1609656;88;21172;-70
2022/02/05 08:57:35;;;;;;;;;;;;;;;-2.07;92.93;99019.14;1603098;88;20191;-74
2022/02/05 09:00:11;;;;;;;;;;;;;;;-2.04;93.00;99022.68;1600875;88;20489;-75
2022/02/05 09:02:43;;;;;;;;;;;;;;;-1.98;93.05;99016.03;1593862;88;20156;-74
2022/02/05 09:05:13;;;;;;;;;;;;;;;-1.93;92.84;99017.45;1583384;89;20162;-74
2022/02/05 09:07:33;;;;;;;;;;;;;;;-1.91;92.56;99016.14;1624180;88;21057;-75
2022/02/05 09:10:09;;;;;;;;;;;;;;;-1.89;92.53;99006.48;1609362;88;20558;-80
2022/02/05 09:15:07;;;;;;;;;;;;;;;-1.83;92.55;99005.48;1600320;88;20650;-77
2022/02/05 09:17:33;;;;;;;;;;;;;;;-1.79;92.36;99000.70;1609094;88;20199;-74
2022/02/05 09:19:59;;;;;;;;;;;;;;;-1.76;92.26;98999.39;1612311;88;21514;-76
2022/02/05 09:22:31;;;;;;;;;;;;;;;-1.72;92.37;98996.46;1603159;88;20180;-78
2022/02/05 09:24:57;;;;;;;;;;;;;;;-1.63;92.41;98997.66;1613219;88;20183;-74
2022/02/05 09:27:22;;;;;;;;;;;;;;;-1.55;92.03;98989.68;1612651;88;20794;-76
2022/02/05 09:30:01;;;;;;;;;;;;;;;-1.53;91.89;98988.90;1628162;88;20207;-74
2022/02/05 09:32:27;;;;;;;;;;;;;;;-1.53;92.00;98981.64;1608170;88;21115;-72
2022/02/05 09:34:54;;;;;;;;;;;;;;;-1.52;92.32;98977.06;1597410;89;20153;-71
2022/02/05 09:37:21;;;;;;;;;;;;;;;-1.52;92.69;98972.50;1627518;87;20193;-71
2022/02/05 09:39:47;;;;;;;;;;;;;;;-1.51;93.00;98971.44;1634498;87;20174;-80
2022/02/05 09:42:14;;;;;;;;;;;;;;;-1.52;93.21;98968.45;1635036;87;20182;-75
2022/02/05 09:44:42;;;;;;;;;;;;;;;-1.55;93.39;98965.45;1634982;87;20121;-76
2022/02/05 09:47:09;;;;;;;;;;;;;;;-1.56;93.87;98967.33;1634819;87;20176;-71
2022/02/05 09:49:35;;;;;;;;;;;;;;;-1.55;94.16;98970.30;1635188;87;20210;-71
2022/02/05 09:52:11;;;;;;;;;;;;;;;-1.55;94.08;98956.03;1635189;87;20440;-72
2022/02/05 09:54:37;;;;;;;;;;;;;;;-1.55;94.31;98953.34;1634845;87;20178;-73
2022/02/05 09:57:06;;;;;;;;;;;;;;;-1.55;94.49;98955.50;1634082;87;22208;-70
2022/02/05 09:59:41;;;;;;;;;;;;;;;-1.55;94.67;98954.16;1634656;87;20121;-72
2022/02/05 10:02:25;;;;;;;;;;;;;;;-1.54;94.81;98946.36;1559326;90;20224;-71
2022/02/05 10:05:04;;;;;;;;;;;;;;;-1.53;94.88;98943.95;1566752;90;20208;-70
2022/02/05 10:07:28;;;;;;;;;;;;;;;-1.51;95.00;98942.35;1614202;89;20441;-70
2022/02/05 10:09:58;;;;;;;;;;;;;;;-1.48;95.02;98932.42;1605554;89;21792;-71
2022/02/05 10:12:25;;;;;;;;;;;;;;;-1.47;94.88;98930.83;1614771;89;20141;-71
2022/02/05 10:14:54;;;;;;;;;;;;;;;-1.45;94.87;98925.20;1605567;89;20178;-71
2022/02/05 10:17:20;;;;;;;;;;;;;;;-1.43;94.66;98927.10;1585850;89;20627;-70
2022/02/05 10:19:51;;;;;;;;;;;;;;;-1.45;94.51;98923.31;1604101;89;20203;-72
2022/02/05 10:22:19;;;;;;;;;;;;;;;-1.46;94.31;98916.30;1604454;89;21140;-71
2022/02/05 10:24:55;;;;;;;;;;;;;;;-1.46;94.47;98916.30;1613282;89;20153;-71
2022/02/05 10:27:33;;;;;;;;;;;;;;;-1.44;94.44;98914.70;1613501;89;20171;-72
2022/02/05 10:30:25;;;;;;;;;;;;;;;-1.42;94.39;98920.12;1612742;89;20192;-76
2022/02/05 10:33:08;;;;;;;;;;;;;;;-1.39;94.20;98925.00;1614015;89;20211;-78
2022/02/05 10:43:52;;;;;;;;;;;;;;;-1.29;93.28;98918.91;1629352;88;20173;-83
2022/02/05 10:46:18;;;;;;;;;;;;;;;-1.24;93.15;98912.23;1628890;88;20212;-83
2022/02/05 10:48:44;;;;;;;;;;;;;;;-1.22;92.91;98903.36;1655490;86;21453;-79
2022/02/05 10:51:13;;;;;;;;;;;;;;;-1.19;92.83;98897.47;1657800;86;20498;-81
2022/02/05 10:53:46;;;;;;;;;;;;;;;-1.15;92.79;98895.05;1658158;86;20213;-74
2022/02/05 11:07:14;;;;;;;;;;;;;;;-0.96;91.89;98874.74;1657827;85;20185;-72
2022/02/05 11:09:43;;;;;;;;;;;;;;;-0.89;91.39;98872.65;1631214;86;20691;-76
2022/02/05 11:20:09;;;;;;;;;;;;;;;-0.61;90.48;98859.91;1654721;86;20170;-76
2022/02/05 11:22:39;;;;;;;;;;;;;;;-0.49;89.84;98863.20;1658327;86;20202;-76
2022/02/05 11:25:09;;;;;;;;;;;;;;;-0.41;89.32;98856.78;1658489;86;20531;-75
2022/02/05 11:27:42;;;;;;;;;;;;;;;-0.33;88.71;98855.48;1657863;86;21865;-76
2022/02/05 11:30:29;;;;;;;;;;;;;;;-0.28;88.42;98847.41;1658040;86;20327;-75
2022/02/05 11:33:00;;;;;;;;;;;;;;;-0.21;88.20;98841.25;1658987;86;20530;-73
2022/02/05 11:35:46;;;;;;;;;;;;;;;-0.16;87.46;98842.63;1660161;86;20201;-71
2022/02/05 11:38:03;;;;;;;;;;;;;;;-0.12;87.26;98836.98;1658493;86;20208;-70
2022/02/05 11:40:49;;;;;;;;;;;;;;;-0.06;87.02;98833.22;1633000;86;21840;-70
2022/02/05 11:43:27;;;;;;;;;;;;;;;0.00;86.46;98821.34;1659988;86;20205;-70
2022/02/05 11:46:08;;;;;;;;;;;;;;;0.06;86.10;98824.06;1659093;86;20176;-73
2022/02/05 11:48:43;;;;;;;;;;;;;;;0.07;85.35;98813.54;1658487;86;20194;-73
2022/02/05 11:51:22;;;;;;;;;;;;;;;-0.02;85.57;98821.36;1659347;86;20206;-77
2022/02/05 11:54:06;;;;;;;;;;;;;;;-0.04;85.57;98823.52;1658552;86;22151;-78
2022/02/05 11:56:53;;;;;;;;;;;;;;;-0.10;85.49;98822.69;1658398;86;20149;-79
2022/02/05 11:59:23;;;;;;;;;;;;;;;-0.18;85.62;98815.09;1658410;86;20464;-77
2022/02/05 12:01:53;;;;;;;;;;;;;;;-0.24;85.85;98824.78;1658032;86;20776;-79
2022/02/05 12:04:23;;;;;;;;;;;;;;;-0.29;86.08;98811.27;1655378;86;20232;-78
2022/02/05 12:06:51;;;;;;;;;;;;;;;-0.33;86.40;98816.38;1658433;86;21147;-78
2022/02/05 12:09:44;;;;;;;;;;;;;;;-0.34;86.63;98815.56;1658146;86;20519;-77
2022/02/05 12:12:34;;;;;;;;;;;;;;;-0.33;86.72;98810.98;1658110;86;20237;-77
2022/02/05 12:15:17;;;;;;;;;;;;;;;-0.31;86.93;98814.23;1657166;86;20444;-74
2022/02/05 12:20:31;;;;;;;;;;;;;;;-0.31;86.53;98810.17;1658316;86;21177;-70
2022/02/05 12:23:03;;;;;;;;;;;;;;;-0.36;86.55;98806.92;1632045;86;20476;-72
2022/02/05 12:25:28;;;;;;;;;;;;;;;-0.40;86.60;98804.47;1657851;85;20460;-73
2022/02/05 12:27:54;;;;;;;;;;;;;;;-0.42;86.84;98799.06;1599821;88;20144;-74
2022/02/05 12:30:35;;;;;;;;;;;;;;;-0.45;86.90;98792.31;1649728;86;20212;-72
2022/02/05 12:32:59;;;;;;;;;;;;;;;-0.45;87.06;98804.98;1629494;86;21193;-71
2022/02/05 12:35:25;;;;;;;;;;;;;;;-0.45;87.23;98802.28;1631485;88;20501;-71
2022/02/05 12:37:52;;;;;;;;;;;;;;;-0.45;87.39;98792.84;1631322;86;20219;-73
2022/02/05 12:40:18;;;;;;;;;;;;;;;-0.44;87.49;98797.17;1631024;88;20195;-72
2022/02/05 12:42:54;;;;;;;;;;;;;;;-0.44;87.33;98800.67;1631387;88;20148;-69
2022/02/05 12:45:35;;;;;;;;;;;;;;;-0.44;87.53;98796.63;1631378;88;21172;-71
2022/02/05 12:48:07;;;;;;;;;;;;;;;-0.44;87.77;98787.19;1655872;86;20465;-72
2022/02/05 12:50:37;;;;;;;;;;;;;;;-0.43;87.68;98794.75;1658320;86;20122;-71
2022/02/05 12:53:06;;;;;;;;;;;;;;;-0.44;87.75;98781.80;1658256;86;20209;-75
2022/02/05 12:55:34;;;;;;;;;;;;;;;-0.41;87.82;98785.86;1658233;86;20197;-72
2022/02/05 12:58:00;;;;;;;;;;;;;;;-0.42;87.80;98774.80;1658020;86;21090;-73
2022/02/05 13:00:27;;;;;;;;;;;;;;;-0.42;87.92;98782.35;1631077;86;20160;-74
2022/02/05 13:02:55;;;;;;;;;;;;;;;-0.43;87.99;98781.27;1658213;86;20202;-70
2022/02/05 13:05:35;;;;;;;;;;;;;;;-0.42;87.96;98785.05;1658037;86;22105;-73
2022/02/05 13:08:02;;;;;;;;;;;;;;;-0.43;87.98;98777.22;1653330;85;20160;-74
2022/02/05 13:10:43;;;;;;;;;;;;;;;-0.42;88.12;98780.19;1654930;85;21217;-71
2022/02/05 13:13:10;;;;;;;;;;;;;;;-0.42;88.20;98782.35;1632792;86;20216;-69
2022/02/05 13:15:39;;;;;;;;;;;;;;;-0.42;88.37;98777.49;1655441;86;20185;-70
2022/02/05 13:18:19;;;;;;;;;;;;;;;-0.44;88.54;98783.69;1655651;86;20687;-72
2022/02/05 13:26:14;;;;;;;;;;;;;;;-0.46;89.04;98795.27;1634454;86;20165;-72
2022/02/05 13:28:49;;;;;;;;;;;;;;;-0.47;89.38;98792.30;1653225;86;20172;-72
2022/02/05 13:34:16;;;;;;;;;;;;;;;-0.44;89.78;98803.38;1627576;86;20184;-75
2022/02/05 13:42:23;;;;;;;;;;;;;;;-0.42;90.04;98784.23;1657496;86;20253;-73
2022/02/05 13:45:02;;;;;;;;;;;;;;;-0.40;90.10;98791.53;1627001;88;20192;-75
2022/02/05 13:47:44;;;;;;;;;;;;;;;-0.39;90.19;98789.11;1627322;87;20179;-70
2022/02/05 13:50:15;;;;;;;;;;;;;;;-0.39;90.26;98789.11;1639130;86;20853;-74
2022/02/05 13:52:48;;;;;;;;;;;;;;;-0.39;90.44;98776.97;1615450;86;20174;-73
2022/02/05 13:55:21;;;;;;;;;;;;;;;-0.40;90.55;98778.85;1639877;86;20182;-72
2022/02/05 13:57:55;;;;;;;;;;;;;;;-0.42;90.75;98774.27;1632376;88;20146;-71
2022/02/05 14:00:21;;;;;;;;;;;;;;;-0.43;91.11;98771.83;1632496;88;20729;-74
2022/02/05 14:02:58;;;;;;;;;;;;;;;-0.45;91.53;98781.52;1632456;88;21135;-68
2022/02/05 14:05:25;;;;;;;;;;;;;;;-0.46;91.78;98784.48;1632172;88;20167;-69
2022/02/05 14:07:52;;;;;;;;;;;;;;;-0.49;92.13;98775.57;1632551;88;20178;-69
2022/02/05 14:10:19;;;;;;;;;;;;;;;-0.50;92.48;98771.25;1632380;88;20466;-69
2022/02/05 14:12:48;;;;;;;;;;;;;;;-0.52;93.06;98770.70;1596840;87;20198;-68
2022/02/05 14:15:15;;;;;;;;;;;;;;;-0.54;93.63;98779.59;1636366;87;21112;-71
2022/02/05 14:17:41;;;;;;;;;;;;;;;-0.57;94.09;98773.37;1636421;87;20483;-69
2022/02/05 14:20:12;;;;;;;;;;;;;;;-0.58;94.48;98778.52;1636173;87;20179;-68
2022/02/05 14:22:43;;;;;;;;;;;;;;;-0.59;94.67;98780.41;1636482;87;20175;-69
2022/02/05 14:25:18;;;;;;;;;;;;;;;-0.60;95.01;98782.83;1636031;87;20179;-72
2022/02/05 14:28:06;;;;;;;;;;;;;;;-0.59;95.22;98784.98;1578482;89;21206;-73
2022/02/05 14:30:31;;;;;;;;;;;;;;;-0.60;95.43;98788.75;1627289;87;20156;-75
2022/02/05 14:33:02;;;;;;;;;;;;;;;-0.62;95.77;98782.27;1652477;84;20214;-72
2022/02/05 14:35:48;;;;;;;;;;;;;;;-0.61;95.88;98795.22;1667750;86;20376;-74
2022/02/05 14:40:46;;;;;;;;;;;;;;;-0.60;96.45;98796.84;1653870;86;21801;-75
2022/02/05 14:43:16;;;;;;;;;;;;;;;-0.61;96.80;98805.47;1633292;88;20207;-74
2022/02/05 14:45:43;;;;;;;;;;;;;;;-0.60;96.84;98804.93;1633348;88;20478;-75
2022/02/05 14:48:09;;;;;;;;;;;;;;;-0.60;97.15;98804.93;1628720;87;20208;-74
2022/02/05 14:50:36;;;;;;;;;;;;;;;-0.60;97.36;98808.44;1632131;87;20151;-74
2022/02/05 14:53:02;;;;;;;;;;;;;;;-0.60;97.82;98800.88;1630821;87;21098;-75
2022/02/05 14:55:28;;;;;;;;;;;;;;;-0.60;98.18;98809.78;1630943;87;20468;-77
2022/02/05 14:57:55;;;;;;;;;;;;;;;-0.58;98.44;98817.61;1633190;87;20268;-74
2022/02/05 15:00:21;;;;;;;;;;;;;;;-0.59;99.02;98818.69;1629289;87;20166;-72
2022/02/05 15:02:49;;;;;;;;;;;;;;;-0.61;99.69;98817.59;1631926;87;20160;-73
2022/02/05 15:05:17;;;;;;;;;;;;;;;-0.60;100.00;98819.75;1627280;87;22601;-76
2022/02/05 15:07:43;;;;;;;;;;;;;;;-0.61;100.00;98814.09;1608574;87;20201;-74
2022/02/05 15:10:12;;;;;;;;;;;;;;;-0.61;100.00;98822.98;1627275;87;20102;-76
2022/02/05 15:12:39;;;;;;;;;;;;;;;-0.59;100.00;98823.54;1632898;87;20376;-74
2022/02/05 15:15:12;;;;;;;;;;;;;;;-0.58;100.00;98811.68;1632615;87;20184;-72
2022/02/05 15:17:40;;;;;;;;;;;;;;;-0.58;100.00;98813.56;1626727;87;21180;-73
2022/02/05 15:20:03;;;;;;;;;;;;;;;-0.58;100.00;98798.20;1622761;87;20170;-71
2022/02/05 15:22:29;;;;;;;;;;;;;;;-0.57;100.00;98797.64;1631254;87;20131;-73
2022/02/05 15:24:55;;;;;;;;;;;;;;;-0.57;100.00;98811.11;1630213;87;20136;-73
2022/02/05 15:27:22;;;;;;;;;;;;;;;-0.57;100.00;98811.92;1627656;87;20178;-73
2022/02/05 15:29:48;;;;;;;;;;;;;;;-0.57;100.00;98824.06;1629548;87;21960;-72
2022/02/05 15:32:14;;;;;;;;;;;;;;;-0.55;100.00;98823.80;1627849;87;20133;-74
2022/02/05 15:34:41;;;;;;;;;;;;;;;-0.54;100.00;98818.68;1622517;87;20452;-73
2022/02/05 15:37:15;;;;;;;;;;;;;;;-0.52;100.00;98818.70;1627371;87;20168;-71
2022/02/05 15:40:15;;;;;;;;;;;;;;;-0.50;100.00;98823.30;1634934;87;20183;-71
2022/02/05 15:45:08;;;;;;;;;;;;;;;-0.46;100.00;98832.48;1640569;87;20315;-72